Briefing drone pour La voulte-sur-rhone

Rechercher une autre localisation

Conditions de vol :


Nous sommes le : Lundi 28 novembre 2022
Il est 17:53 UTC (18:53 LT)

Lever de soleil : 06:28 UTC (07:28 LT)
Coucher de soleil : 16:29 UTC (17:29 LT)

Météo

L'essentiel des conditions de vol

VIGILANCE MÉTÉO FRANCE - Ardèche (07)
Pas de vigilances particulieres
METAR de LFLU
LFLU 281730Z AUTO 30007KT 9999 BKN058 BKN110 08/07 Q1015

Date d'émission: 28/11/2022
Heure d'émission: 17:30 UTC
Vent: 300° pour 7 KT (13 km/h)
Visibilité horizontale: > 10 km
Plafond :
- Nuages morcelés à 5800ft (1768m)
- Nuages morcelés à 11000ft (3353m)
Température: 8 °C
Point de rosée: 7 °C
Humidité: 93%
Pression (QNH): 1015 hPa
Prévision 24h pour Valence (11 km)
Vent : 12° pour 5 KT (18 km/h)
Temperature Maxi: 8 °C
Temperature Min: 8 °C
Humidité : 82%
Condition : Légère pluie



Warning: count(): Parameter must be an array or an object that implements Countable in /homepages/6/d509196549/htdocs/droneoxygene/briefing.php on line 743
WEBCAM POUR LA VOULTE-SUR-RHONE

Réglementation

Voler en sécurité

CARTES AERONAUTIQUE 1/500.000
CARTE AZBA (Reseau basse altitude)
CARTES VAC (LFLU)
SUP AIP




Chargement des AIP...
NOTAM (LA VOULTE-SUR-RHONE + Terrain à proximité / FIR )




Chargement des NOTAMS...
CONTACT PREFECTURE 07


Avertissement : Les données mises à disposition sont indicatives. Oxygène Drone ne pourra être tenu responsable de dégâts causés aux biens et aux personnes.